Time;durP1;ratioP1;P1;durP2;ratioP2;P2;SDS_P1;SDS_P2;PMS_P1;PMS_P2;Temp;Humidity;BMP_temperature;BMP_pressure;BME280_temperature;BME280_humidity;BME280_pressure;Samples;Min_cycle;Max_cycle;Signal;HPM_P1;HPM_P2
2022/06/13 00:00:25;;;;;;;7.20;5.75;;;22.70;99.90;;;;;;5033689;28;20065;-71
2022/06/13 00:02:51;;;;;;;10.75;5.78;;;22.70;99.90;;;;;;5024886;28;20026;-72
2022/06/13 00:05:17;;;;;;;8.43;6.57;;;22.70;99.90;;;;;;5025415;28;20379;-72
2022/06/13 00:07:43;;;;;;;15.00;6.72;;;22.70;99.90;;;;;;5034324;28;20025;-73
2022/06/13 00:10:11;;;;;;;9.68;6.25;;;22.60;99.90;;;;;;5030135;28;20477;-72
2022/06/13 00:12:38;;;;;;;8.40;6.20;;;22.60;99.90;;;;;;5029400;28;20014;-73
2022/06/13 00:15:05;;;;;;;8.63;6.28;;;22.50;99.90;;;;;;5033107;28;20026;-71
2022/06/13 00:17:31;;;;;;;9.15;6.43;;;22.50;99.90;;;;;;5030842;28;20037;-72
2022/06/13 00:19:57;;;;;;;9.40;6.15;;;22.40;99.90;;;;;;5035252;28;20033;-71
2022/06/13 00:22:23;;;;;;;9.80;6.28;;;22.40;99.90;;;;;;5033514;28;20025;-72
2022/06/13 00:24:48;;;;;;;10.48;6.30;;;22.30;99.90;;;;;;5020382;28;20026;-72
2022/06/13 00:27:15;;;;;;;10.95;7.15;;;22.30;99.90;;;;;;5035880;28;20052;-72
2022/06/13 00:29:42;;;;;;;12.80;6.13;;;22.30;99.90;;;;;;5019928;28;20436;-72
2022/06/13 00:32:08;;;;;;;13.27;6.50;;;22.30;99.90;;;;;;5004988;28;20034;-72
2022/06/13 00:34:33;;;;;;;13.57;7.18;;;22.30;99.90;;;;;;5021524;28;20483;-72
2022/06/13 00:36:59;;;;;;;14.05;7.15;;;22.30;99.90;;;;;;5007500;28;20068;-72
2022/06/13 00:39:25;;;;;;;9.55;6.78;;;22.20;99.90;;;;;;5025135;28;20102;-72
2022/06/13 00:41:51;;;;;;;12.57;6.80;;;22.20;99.90;;;;;;5026473;28;20033;-71
2022/06/13 00:44:22;;;;;;;13.15;6.47;;;22.20;99.90;;;;;;5010718;28;20383;-72
2022/06/13 00:46:49;;;;;;;15.75;6.88;;;22.10;99.90;;;;;;5028868;28;20104;-73
2022/06/13 00:49:20;;;;;;;10.48;6.95;;;22.10;99.90;;;;;;5013266;28;20045;-73
2022/06/13 00:51:53;;;;;;;8.40;6.28;;;22.10;99.90;;;;;;5030890;28;20390;-73
2022/06/13 00:54:21;;;;;;;13.05;7.68;;;22.10;99.90;;;;;;5015638;28;20033;-73
2022/06/13 00:56:50;;;;;;;12.18;7.30;;;22.00;99.90;;;;;;5034645;28;20022;-73
2022/06/13 00:59:24;;;;;;;11.77;7.15;;;22.00;99.90;;;;;;5019121;28;20025;-72
2022/06/13 01:01:49;;;;;;;12.88;6.32;;;21.90;99.90;;;;;;5019375;28;20018;-73
2022/06/13 01:04:16;;;;;;;12.48;5.78;;;21.90;99.90;;;;;;5002629;28;20037;-73
2022/06/13 01:06:46;;;;;;;11.80;6.30;;;21.80;99.90;;;;;;5005117;28;20845;-72
2022/06/13 01:09:14;;;;;;;11.93;6.03;;;21.80;99.90;;;;;;5022818;28;20025;-72
2022/06/13 01:11:45;;;;;;;12.40;5.28;;;21.70;99.90;;;;;;5025961;28;20025;-73
2022/06/13 01:14:17;;;;;;;11.40;5.50;;;21.60;99.90;;;;;;5007886;28;20025;-72
2022/06/13 01:16:52;;;;;;;17.05;5.13;;;21.60;99.90;;;;;;5017110;28;20381;-72
2022/06/13 01:19:26;;;;;;;12.98;6.63;;;21.60;99.90;;;;;;5029538;28;20102;-73
2022/06/13 01:22:11;;;;;;;9.63;5.25;;;21.60;99.90;;;;;;5029685;28;20397;-73
2022/06/13 01:24:55;;;;;;;12.32;5.90;;;21.50;99.90;;;;;;5008118;28;20029;-73
2022/06/13 01:27:57;;;;;;;15.30;6.35;;;21.50;99.90;;;;;;5032831;28;20013;-72
2022/06/13 01:30:51;;;;;;;12.35;6.55;;;21.40;99.90;;;;;;5035012;28;20014;-73
2022/06/13 01:33:35;;;;;;;17.15;6.10;;;21.40;99.90;;;;;;5019600;28;20112;-72
2022/06/13 01:36:13;;;;;;;18.98;5.75;;;21.30;99.90;;;;;;5018954;28;20036;-72
2022/06/13 01:38:57;;;;;;;14.50;5.35;;;21.20;99.90;;;;;;5022376;28;20505;-72
2022/06/13 01:41:31;;;;;;;14.00;5.65;;;21.20;99.90;;;;;;5020097;28;20022;-72
2022/06/13 01:44:15;;;;;;;14.40;5.03;;;21.10;99.90;;;;;;5021061;28;20708;-73
2022/06/13 01:46:58;;;;;;;12.80;5.25;;;21.00;99.90;;;;;;5024663;28;20026;-72
2022/06/13 01:49:43;;;;;;;22.17;6.18;;;21.00;99.90;;;;;;5022970;28;20042;-72
2022/06/13 01:52:32;;;;;;;13.38;5.93;;;20.90;99.90;;;;;;5024651;28;20390;-73
2022/06/13 01:55:27;;;;;;;19.23;6.30;;;20.80;99.90;;;;;;5028859;28;20053;-73
2022/06/13 01:58:12;;;;;;;18.45;5.22;;;20.70;99.90;;;;;;5010347;28;20041;-72
2022/06/13 02:00:40;;;;;;;15.73;5.53;;;20.70;99.90;;;;;;5027042;28;20029;-72
2022/06/13 02:03:28;;;;;;;25.27;7.68;;;20.60;99.90;;;;;;5002036;28;20033;-73
2022/06/13 02:06:14;;;;;;;14.93;5.78;;;20.50;99.90;;;;;;5002508;28;20029;-72
2022/06/13 02:08:45;;;;;;;18.55;6.50;;;20.40;99.90;;;;;;5003596;28;20021;-72
2022/06/13 02:11:17;;;;;;;19.48;5.97;;;20.40;99.90;;;;;;5026112;28;20021;-73
2022/06/13 02:14:13;;;;;;;17.77;5.32;;;20.30;99.90;;;;;;5023227;28;20037;-74
2022/06/13 02:16:57;;;;;;;19.15;7.15;;;20.30;99.90;;;;;;5011199;28;20029;-73
2022/06/13 02:19:34;;;;;;;9.30;4.57;;;20.20;99.90;;;;;;5030230;28;20411;-73
2022/06/13 02:22:25;;;;;;;15.85;5.22;;;20.10;99.90;;;;;;5028735;28;20025;-73
2022/06/13 02:24:59;;;;;;;10.85;5.10;;;20.10;99.90;;;;;;5016376;28;20405;-74
2022/06/13 02:27:31;;;;;;;15.85;6.38;;;20.00;99.90;;;;;;5032864;28;20017;-71
2022/06/13 02:30:02;;;;;;;18.92;5.47;;;19.90;99.90;;;;;;5035562;28;20115;-72
2022/06/13 02:32:36;;;;;;;20.77;7.05;;;19.80;99.90;;;;;;5012485;28;20475;-73
2022/06/13 02:35:10;;;;;;;13.55;6.40;;;19.80;99.90;;;;;;5017958;28;20072;-73
2022/06/13 02:37:52;;;;;;;13.05;4.85;;;19.80;99.90;;;;;;5018855;28;20112;-72
2022/06/13 02:40:24;;;;;;;14.77;6.68;;;19.80;99.90;;;;;;5003641;28;20083;-72
2022/06/13 02:43:07;;;;;;;18.95;7.30;;;19.80;99.90;;;;;;5020259;28;20022;-73
2022/06/13 02:45:52;;;;;;;19.55;6.88;;;19.80;99.90;;;;;;5024805;28;20048;-73
2022/06/13 02:48:22;;;;;;;13.52;5.93;;;19.80;99.90;;;;;;5023922;28;20046;-72
2022/06/13 02:51:11;;;;;;;16.67;7.07;;;19.90;99.90;;;;;;5025384;28;20022;-73
2022/06/13 02:53:45;;;;;;;14.75;6.88;;;19.90;99.90;;;;;;5029470;28;20025;-73
2022/06/13 02:56:29;;;;;;;19.33;7.35;;;19.90;99.90;;;;;;5025705;28;20026;-73
2022/06/13 02:59:19;;;;;;;15.23;8.55;;;19.90;99.90;;;;;;5015076;28;20076;-73
2022/06/13 03:01:49;;;;;;;23.75;8.80;;;19.90;99.90;;;;;;5000611;28;20049;-73
2022/06/13 03:04:31;;;;;;;17.77;8.90;;;19.90;99.90;;;;;;5018596;28;20109;-73
2022/06/13 03:07:04;;;;;;;16.90;7.75;;;19.90;99.90;;;;;;5019880;28;20018;-73
2022/06/13 03:09:40;;;;;;;18.30;7.88;;;19.90;99.90;;;;;;5023784;28;20032;-73
2022/06/13 03:12:33;;;;;;;16.35;7.90;;;19.80;99.90;;;;;;5021942;28;20079;-73
2022/06/13 03:15:07;;;;;;;21.67;8.35;;;19.70;99.90;;;;;;5027737;28;20068;-73
2022/06/13 03:17:37;;;;;;;15.88;8.52;;;19.50;99.90;;;;;;5033490;28;20346;-73
2022/06/13 03:20:16;;;;;;;23.88;10.38;;;19.40;99.90;;;;;;5031743;28;20036;-73
2022/06/13 03:23:07;;;;;;;19.95;9.40;;;19.30;99.90;;;;;;5034090;28;20049;-73
2022/06/13 03:25:46;;;;;;;19.15;8.95;;;19.30;99.90;;;;;;5031489;28;20387;-72
2022/06/13 03:28:30;;;;;;;21.38;9.20;;;19.20;99.90;;;;;;5019390;28;20025;-72
2022/06/13 03:31:01;;;;;;;27.75;9.27;;;19.20;99.90;;;;;;5019887;28;20025;-72
2022/06/13 03:33:41;;;;;;;19.83;10.15;;;19.10;99.90;;;;;;5038629;28;20029;-72
2022/06/13 03:36:22;;;;;;;24.83;10.13;;;19.00;99.90;;;;;;5013793;28;20095;-72
2022/06/13 03:38:59;;;;;;;17.95;9.90;;;18.90;99.90;;;;;;5004918;28;20018;-72
2022/06/13 03:41:31;;;;;;;23.15;8.98;;;18.90;99.90;;;;;;5022358;28;20056;-72
2022/06/13 03:44:23;;;;;;;25.98;11.43;;;18.80;99.90;;;;;;5005570;28;20033;-72
2022/06/13 03:47:01;;;;;;;26.83;12.07;;;18.80;99.90;;;;;;5027771;28;20399;-71
2022/06/13 03:49:59;;;;;;;19.50;11.43;;;18.80;99.90;;;;;;5024817;28;20562;-73
2022/06/13 03:52:28;;;;;;;19.48;10.05;;;18.80;99.90;;;;;;5015964;28;20441;-71
2022/06/13 03:55:08;;;;;;;18.88;10.43;;;18.80;99.90;;;;;;5032488;28;20033;-70
2022/06/13 03:57:48;;;;;;;18.33;9.82;;;18.70;99.90;;;;;;5026139;28;20499;-72
2022/06/13 04:00:19;;;;;;;17.90;8.10;;;18.70;99.90;;;;;;5009000;28;20486;-72
2022/06/13 04:02:45;;;;;;;17.23;7.95;;;18.70;99.90;;;;;;5027217;28;20401;-71
2022/06/13 04:05:25;;;;;;;19.80;8.20;;;18.80;99.90;;;;;;5022163;28;20077;-71
2022/06/13 04:07:51;;;;;;;15.65;8.52;;;18.90;99.90;;;;;;5035072;28;20067;-73
2022/06/13 04:10:18;;;;;;;24.30;9.40;;;18.90;99.90;;;;;;5024730;28;20026;-72
2022/06/13 04:13:41;;;;;;;19.77;8.82;;;18.90;99.90;;;;;;5027557;28;20028;-72
2022/06/13 04:16:44;;;;;;;16.50;9.95;;;18.90;99.90;;;;;;4988202;28;20356;-72
2022/06/13 04:19:12;;;;;;;11.75;9.45;;;18.80;99.90;;;;;;5011753;28;20026;-73
2022/06/13 04:22:19;;;;;;;21.52;10.52;;;18.80;99.90;;;;;;5033746;28;20057;-72
2022/06/13 04:25:13;;;;;;;24.10;11.15;;;18.80;99.90;;;;;;5011910;28;20025;-72
2022/06/13 04:27:46;;;;;;;22.67;11.50;;;18.70;99.90;;;;;;5037227;28;20024;-72
2022/06/13 04:30:27;;;;;;;31.73;12.10;;;18.70;99.90;;;;;;5020328;28;20018;-73
2022/06/13 04:32:55;;;;;;;14.85;11.45;;;18.70;99.90;;;;;;5019599;28;20141;-72
2022/06/13 04:35:21;;;;;;;34.03;11.80;;;18.70;99.90;;;;;;5022186;28;20030;-72
2022/06/13 04:37:49;;;;;;;23.75;12.68;;;18.80;99.90;;;;;;5004259;28;20501;-72
2022/06/13 04:40:25;;;;;;;22.60;11.82;;;18.80;99.90;;;;;;5024711;28;20488;-72
2022/06/13 04:42:51;;;;;;;23.15;11.00;;;18.80;99.90;;;;;;5032831;28;20481;-72
2022/06/13 04:45:33;;;;;;;24.00;12.20;;;18.70;99.90;;;;;;5032865;28;20119;-73
2022/06/13 04:48:01;;;;;;;17.67;11.52;;;18.70;99.90;;;;;;5015034;28;20050;-73
2022/06/13 04:50:44;;;;;;;20.67;12.27;;;18.60;99.90;;;;;;5033847;28;20068;-73
2022/06/13 04:53:20;;;;;;;22.90;12.13;;;18.70;99.90;;;;;;5027337;28;20021;-73
2022/06/13 04:55:48;;;;;;;24.75;12.85;;;18.70;99.90;;;;;;5011469;28;20022;-73
2022/06/13 04:58:34;;;;;;;28.83;13.85;;;18.70;99.90;;;;;;5022145;28;20034;-74
2022/06/13 05:01:31;;;;;;;34.95;13.20;;;18.70;99.90;;;;;;5021472;28;20022;-73
2022/06/13 05:04:00;;;;;;;19.50;12.27;;;18.70;99.90;;;;;;5022983;28;20398;-73
2022/06/13 05:06:42;;;;;;;18.67;11.57;;;18.80;99.90;;;;;;5028175;28;20083;-72
2022/06/13 05:09:08;;;;;;;18.65;12.27;;;18.80;99.90;;;;;;5007552;28;20053;-73
2022/06/13 05:11:56;;;;;;;20.70;11.15;;;18.80;99.90;;;;;;5014297;28;20075;-73
2022/06/13 05:14:29;;;;;;;22.35;12.52;;;18.80;99.90;;;;;;5011854;28;20041;-73
2022/06/13 05:17:17;;;;;;;21.08;12.63;;;18.90;99.90;;;;;;5015109;28;20083;-73
2022/06/13 05:20:12;;;;;;;17.00;12.43;;;19.00;99.90;;;;;;5027247;28;20063;-73
2022/06/13 05:22:48;;;;;;;29.60;13.10;;;19.10;99.90;;;;;;5036349;28;20439;-73
2022/06/13 05:25:45;;;;;;;18.73;11.40;;;19.20;99.90;;;;;;5037258;28;20053;-72
2022/06/13 05:28:15;;;;;;;18.30;11.40;;;19.30;99.90;;;;;;5029037;28;20021;-73
2022/06/13 05:30:46;;;;;;;17.10;10.93;;;19.40;99.90;;;;;;5034609;28;20513;-73
2022/06/13 05:33:14;;;;;;;19.90;11.63;;;19.40;99.90;;;;;;5035564;28;20482;-74
2022/06/13 05:35:44;;;;;;;20.40;11.85;;;19.40;99.90;;;;;;5017518;28;20508;-74
2022/06/13 05:38:18;;;;;;;22.25;11.43;;;19.50;99.90;;;;;;5016319;28;20026;-73
2022/06/13 05:40:44;;;;;;;18.17;12.68;;;19.50;99.90;;;;;;5032748;28;20038;-74
2022/06/13 05:43:12;;;;;;;21.80;13.65;;;19.60;99.90;;;;;;5032900;28;20025;-74
2022/06/13 05:45:39;;;;;;;21.73;12.55;;;19.70;99.90;;;;;;5016300;28;20096;-73
2022/06/13 05:48:10;;;;;;;22.58;12.27;;;19.80;99.90;;;;;;5010811;28;20046;-73
2022/06/13 05:50:35;;;;;;;18.95;11.77;;;19.90;99.90;;;;;;5027319;28;20466;-73
2022/06/13 05:53:01;;;;;;;26.40;11.13;;;19.90;99.90;;;;;;5007184;28;20022;-74
2022/06/13 05:55:28;;;;;;;16.75;10.88;;;20.00;99.90;;;;;;5019150;28;20032;-74
2022/06/13 05:57:54;;;;;;;19.20;9.90;;;20.10;99.90;;;;;;5026904;28;20132;-73
2022/06/13 06:00:25;;;;;;;19.50;10.70;;;20.10;99.90;;;;;;5001850;28;20030;-74
2022/06/13 06:02:51;;;;;;;18.70;10.32;;;20.20;99.90;;;;;;5008482;28;20025;-73
2022/06/13 06:05:17;;;;;;;20.25;10.68;;;20.10;99.90;;;;;;5023919;28;20036;-74
2022/06/13 06:07:43;;;;;;;15.82;11.30;;;20.30;99.90;;;;;;5006474;28;20026;-73
2022/06/13 06:10:17;;;;;;;15.93;10.27;;;20.50;99.90;;;;;;5029647;28;20112;-74
2022/06/13 06:12:43;;;;;;;19.58;10.05;;;20.60;99.90;;;;;;5018859;28;20379;-74
2022/06/13 06:15:09;;;;;;;21.40;10.90;;;20.70;99.90;;;;;;5036339;28;20088;-73
2022/06/13 06:17:35;;;;;;;15.88;10.45;;;20.80;99.90;;;;;;5036781;28;20026;-73
2022/06/13 06:20:01;;;;;;;25.02;10.48;;;21.00;99.90;;;;;;5028786;28;20021;-73
2022/06/13 06:22:26;;;;;;;18.80;11.07;;;21.30;99.90;;;;;;5003702;28;20045;-74
2022/06/13 06:24:52;;;;;;;12.20;8.77;;;21.50;99.90;;;;;;5020267;28;20060;-73
2022/06/13 06:27:18;;;;;;;16.33;8.80;;;21.80;99.90;;;;;;5014937;28;20506;-73
2022/06/13 06:29:44;;;;;;;14.45;8.38;;;22.00;99.90;;;;;;5024246;28;20049;-73
2022/06/13 06:32:10;;;;;;;13.60;8.23;;;22.20;99.90;;;;;;5025709;28;20036;-73
2022/06/13 06:34:36;;;;;;;13.20;9.13;;;22.20;99.90;;;;;;5011992;28;20505;-74
2022/06/13 06:37:02;;;;;;;15.70;8.00;;;22.20;99.90;;;;;;5021660;28;20052;-74
2022/06/13 06:39:28;;;;;;;14.77;8.50;;;22.20;99.90;;;;;;5032454;28;20437;-74
2022/06/13 06:41:53;;;;;;;17.88;8.75;;;21.90;99.90;;;;;;5030009;28;20018;-73
2022/06/13 06:44:19;;;;;;;16.05;9.38;;;21.70;99.90;;;;;;5018063;28;20482;-75
2022/06/13 06:46:45;;;;;;;17.80;9.95;;;21.50;99.90;;;;;;5016427;28;20022;-73
2022/06/13 06:49:11;;;;;;;17.55;10.10;;;21.40;99.90;;;;;;5038260;28;20125;-73
2022/06/13 06:51:37;;;;;;;21.90;10.82;;;21.20;99.90;;;;;;5025934;28;20022;-74
2022/06/13 07:02:15;;;;;;;23.60;9.90;;;21.60;99.90;;;;;;5038951;28;20037;-73
2022/06/13 07:04:41;;;;;;;15.40;9.95;;;21.80;99.90;;;;;;5037592;28;20409;-74
2022/06/13 07:07:07;;;;;;;21.70;8.52;;;22.00;99.90;;;;;;5011103;28;20026;-74
2022/06/13 07:09:32;;;;;;;14.52;8.45;;;22.30;99.90;;;;;;5039782;28;20022;-74
2022/06/13 07:11:58;;;;;;;13.52;7.75;;;22.60;99.90;;;;;;5039435;28;20477;-74
2022/06/13 07:14:31;;;;;;;10.05;7.85;;;22.90;99.90;;;;;;5032002;28;20056;-75
2022/06/13 07:16:58;;;;;;;19.50;7.85;;;22.90;99.90;;;;;;5027815;28;20033;-75
2022/06/13 07:19:25;;;;;;;16.67;7.35;;;22.80;99.90;;;;;;5035106;28;20986;-74
2022/06/13 07:21:51;;;;;;;12.43;7.90;;;22.60;99.90;;;;;;5016868;28;20021;-75
2022/06/13 07:24:17;;;;;;;16.95;7.30;;;22.60;99.90;;;;;;5020853;28;20059;-74
2022/06/13 07:26:44;;;;;;;10.82;7.03;;;22.60;99.90;;;;;;5039356;28;20056;-75
2022/06/13 07:29:10;;;;;;;14.15;7.70;;;22.60;99.90;;;;;;5022854;28;20036;-74
2022/06/13 07:32:00;;;;;;;20.27;8.82;;;22.60;99.90;;;;;;5020417;28;20056;-73
2022/06/13 07:34:28;;;;;;;11.15;7.00;;;22.60;99.90;;;;;;5033440;28;20493;-75
2022/06/13 07:36:57;;;;;;;14.65;6.65;;;22.30;99.90;;;;;;5032649;28;20091;-74
2022/06/13 07:39:23;;;;;;;14.10;7.43;;;22.20;99.90;;;;;;5032981;28;20053;-74
2022/06/13 07:41:50;;;;;;;13.00;6.45;;;22.20;99.90;;;;;;5024941;28;20510;-78
2022/06/13 07:44:30;;;;;;;11.57;7.22;;;22.40;99.90;;;;;;5029534;28;20022;-76
2022/06/13 07:46:56;;;;;;;17.60;8.20;;;22.40;99.90;;;;;;5030895;28;20071;-75
2022/06/13 07:49:22;;;;;;;13.20;7.13;;;22.40;99.90;;;;;;5030590;28;20069;-77
2022/06/13 07:51:48;;;;;;;13.93;6.75;;;22.50;99.90;;;;;;5016371;28;20030;-76
2022/06/13 07:54:15;;;;;;;16.52;6.38;;;22.40;99.90;;;;;;5013502;28;20022;-77
2022/06/13 07:56:42;;;;;;;12.48;6.43;;;22.40;99.90;;;;;;5016008;28;20029;-76
2022/06/13 07:59:12;;;;;;;11.82;6.85;;;22.50;99.90;;;;;;5021178;28;20060;-76
2022/06/13 08:01:38;;;;;;;8.70;6.03;;;22.40;99.90;;;;;;5020759;28;20072;-76
2022/06/13 08:04:04;;;;;;;11.57;6.80;;;22.50;99.90;;;;;;5027932;28;20026;-77
2022/06/13 08:06:30;;;;;;;12.70;7.10;;;22.60;99.90;;;;;;5034834;28;20059;-75
2022/06/13 08:08:56;;;;;;;17.50;7.25;;;22.50;99.90;;;;;;5035322;28;20018;-76
2022/06/13 08:11:35;;;;;;;15.57;7.90;;;22.40;99.90;;;;;;5032935;28;20021;-75
2022/06/13 08:14:01;;;;;;;14.88;8.15;;;22.40;99.90;;;;;;5028792;28;20029;-76
2022/06/13 08:16:28;;;;;;;17.17;8.18;;;22.50;99.90;;;;;;5033704;28;20085;-77
2022/06/13 08:18:54;;;;;;;14.80;8.43;;;22.60;99.90;;;;;;5030954;28;20026;-76
2022/06/13 08:21:21;;;;;;;14.93;7.75;;;22.60;99.90;;;;;;5036771;28;20026;-76
2022/06/13 08:23:47;;;;;;;12.80;6.85;;;22.80;99.90;;;;;;5033452;28;20018;-76
2022/06/13 08:26:13;;;;;;;13.20;6.97;;;23.10;99.90;;;;;;5017530;28;20079;-75
2022/06/13 08:28:39;;;;;;;8.02;5.80;;;23.30;99.90;;;;;;5011879;28;20030;-75
2022/06/13 08:31:08;;;;;;;13.70;6.00;;;23.60;99.90;;;;;;5010945;28;20022;-75
2022/06/13 08:33:34;;;;;;;16.38;6.72;;;23.80;99.90;;;;;;5008063;28;20022;-77
2022/06/13 08:36:00;;;;;;;11.32;6.78;;;23.80;99.90;;;;;;5038135;28;20025;-77
2022/06/13 08:38:26;;;;;;;13.88;6.45;;;23.70;99.90;;;;;;5028394;28;20078;-76
2022/06/13 08:41:10;;;;;;;13.90;6.43;;;23.80;99.90;;;;;;5034655;28;20029;-76
2022/06/13 08:44:13;;;;;;;12.88;6.60;;;23.90;99.90;;;;;;5033059;28;20030;-76
2022/06/13 08:46:48;;;;;;;13.00;6.60;;;23.90;99.90;;;;;;5035088;28;20059;-75
2022/06/13 08:49:30;;;;;;;9.27;5.55;;;24.20;99.90;;;;;;5035471;28;20152;-75
2022/06/13 08:52:26;;;;;;;11.40;6.57;;;24.40;99.90;;;;;;5018691;28;20022;-75
2022/06/13 08:55:25;;;;;;;13.32;6.63;;;24.60;99.90;;;;;;5027327;28;20470;-75
2022/06/13 08:58:05;;;;;;;11.18;5.65;;;24.70;99.90;;;;;;5010852;28;20030;-75
2022/06/13 09:00:35;;;;;;;14.80;5.53;;;24.90;99.90;;;;;;5036336;28;20028;-75
2022/06/13 09:03:51;;;;;;;9.48;5.55;;;25.10;99.90;;;;;;5035984;28;20497;-76
2022/06/13 09:06:37;;;;;;;12.77;5.13;;;25.00;99.90;;;;;;4985141;28;20053;-76
2022/06/13 09:09:20;;;;;;;14.10;5.75;;;25.00;99.90;;;;;;5019791;28;20029;-76
2022/06/13 09:12:02;;;;;;;15.57;5.63;;;25.20;99.90;;;;;;5020454;28;20022;-76
2022/06/13 09:14:35;;;;;;;13.25;5.97;;;25.40;99.90;;;;;;5007611;28;20478;-74
2022/06/13 09:17:21;;;;;;;10.43;4.82;;;25.40;99.90;;;;;;5011567;28;20014;-75
2022/06/13 09:20:17;;;;;;;9.20;5.28;;;25.70;99.90;;;;;;5014406;28;20030;-75
2022/06/13 09:22:58;;;;;;;11.18;5.07;;;25.90;99.90;;;;;;5032962;28;20014;-74
2022/06/13 09:25:33;;;;;;;8.50;5.07;;;26.00;99.90;;;;;;5024278;28;20121;-76
2022/06/13 09:28:11;;;;;;;11.05;4.93;;;26.00;99.90;;;;;;5014430;28;20021;-75
2022/06/13 09:30:45;;;;;;;10.50;5.30;;;25.80;99.90;;;;;;5034448;28;20025;-77
2022/06/13 09:33:18;;;;;;;9.70;4.93;;;25.80;99.90;;;;;;5037213;28;20018;-74
2022/06/13 09:36:13;;;;;;;10.77;5.20;;;25.80;99.90;;;;;;5018576;28;20033;-76
2022/06/13 09:38:48;;;;;;;11.60;5.72;;;25.60;99.90;;;;;;5009542;28;20022;-75
2022/06/13 09:41:31;;;;;;;9.57;5.28;;;25.70;99.90;;;;;;5030705;28;20034;-74
2022/06/13 09:44:06;;;;;;;10.55;5.53;;;26.00;99.90;;;;;;5026798;28;20025;-75
2022/06/13 09:46:41;;;;;;;11.20;5.10;;;25.90;99.90;;;;;;5006022;28;20022;-75
2022/06/13 09:49:36;;;;;;;10.90;4.97;;;26.20;99.90;;;;;;5006734;28;20049;-74
2022/06/13 09:52:39;;;;;;;13.15;4.70;;;26.30;99.90;;;;;;5010770;28;20045;-74
2022/06/13 09:55:33;;;;;;;10.18;4.82;;;26.20;99.90;;;;;;5009149;28;20058;-74
2022/06/13 09:58:06;;;;;;;12.38;4.40;;;26.30;99.90;;;;;;5005450;28;20025;-75
2022/06/13 10:00:53;;;;;;;6.75;4.50;;;26.30;99.90;;;;;;5013873;28;20037;-75
2022/06/13 10:04:02;;;;;;;13.43;4.72;;;26.20;99.90;;;;;;5013106;28;20467;-75
2022/06/13 10:06:48;;;;;;;8.90;4.50;;;26.30;99.90;;;;;;5008749;28;20049;-74
2022/06/13 10:09:16;;;;;;;11.48;4.10;;;26.30;99.90;;;;;;5004442;28;20065;-74
2022/06/13 10:12:07;;;;;;;8.38;4.97;;;26.40;99.90;;;;;;5001699;28;20027;-76
2022/06/13 10:14:39;;;;;;;9.27;5.32;;;26.30;99.90;;;;;;5004200;28;20033;-74
2022/06/13 10:17:34;;;;;;;10.23;3.83;;;26.20;99.90;;;;;;5015047;28;20018;-75
2022/06/13 10:20:26;;;;;;;12.10;4.10;;;26.30;99.90;;;;;;5006641;28;20446;-75
2022/06/13 10:23:08;;;;;;;10.27;4.90;;;26.60;99.90;;;;;;5010422;28;20021;-75
2022/06/13 10:25:36;;;;;;;9.95;4.43;;;26.90;99.90;;;;;;5006490;28;20038;-74
2022/06/13 10:28:05;;;;;;;11.20;4.75;;;27.10;99.90;;;;;;5006829;28;20167;-75
2022/06/13 10:30:40;;;;;;;10.90;4.25;;;27.30;99.90;;;;;;5012249;28;20022;-76
2022/06/13 10:33:22;;;;;;;8.45;4.45;;;27.50;99.90;;;;;;5016417;28;20386;-76
2022/06/13 10:35:48;;;;;;;11.20;4.25;;;27.60;99.90;;;;;;5016089;28;20025;-79
2022/06/13 10:38:55;;;;;;;7.28;3.92;;;27.70;99.90;;;;;;5011006;28;20026;-76
2022/06/13 10:41:23;;;;;;;8.48;4.53;;;27.80;99.90;;;;;;5016097;28;20037;-77
2022/06/13 10:43:49;;;;;;;12.15;5.55;;;28.00;99.90;;;;;;5015398;28;20022;-80
2022/06/13 10:46:16;;;;;;;8.35;4.07;;;28.00;99.90;;;;;;5009872;28;20053;-75
2022/06/13 10:48:44;;;;;;;8.68;3.70;;;27.90;99.90;;;;;;5023796;28;20514;-76
2022/06/13 10:51:10;;;;;;;10.80;3.13;;;28.00;99.90;;;;;;5030461;28;20418;-75
2022/06/13 10:53:38;;;;;;;9.65;3.90;;;28.20;99.90;;;;;;5015275;28;20014;-75
2022/06/13 10:56:10;;;;;;;11.23;4.25;;;28.20;99.90;;;;;;5034006;28;20052;-76
2022/06/13 10:58:50;;;;;;;11.20;3.88;;;28.20;99.90;;;;;;5023833;28;20052;-75
2022/06/13 11:01:30;;;;;;;8.15;4.70;;;28.30;99.90;;;;;;5022137;28;20022;-75
2022/06/13 11:03:58;;;;;;;;;;;28.20;99.90;;;;;;5030058;28;20029;-76
2022/06/13 11:06:44;;;;;;;8.65;4.47;;;28.30;99.90;;;;;;5018080;28;21142;-75
2022/06/13 11:09:36;;;;;;;7.13;4.20;;;28.30;99.90;;;;;;5027009;28;20030;-75
2022/06/13 11:12:05;;;;;;;6.95;3.35;;;28.50;99.90;;;;;;5019156;28;20022;-76
2022/06/13 11:14:34;;;;;;;10.13;3.55;;;28.50;99.90;;;;;;5035280;28;20029;-76
2022/06/13 11:22:38;;;;;;;7.28;3.45;;;28.10;99.90;;;;;;5024781;28;20032;-75
2022/06/13 11:25:29;;;;;;;9.77;3.92;;;28.20;99.90;;;;;;5006749;28;20037;-76
2022/06/13 11:28:37;;;;;;;6.43;3.20;;;28.10;99.90;;;;;;5034756;28;20021;-75
2022/06/13 11:31:14;;;;;;;6.30;3.60;;;28.20;99.90;;;;;;4986455;28;20520;-76
2022/06/13 11:33:40;;;;;;;7.30;2.80;;;28.20;99.90;;;;;;5035528;28;20485;-75
2022/06/13 11:36:12;;;;;;;7.28;3.70;;;28.50;99.90;;;;;;5038715;28;20035;-77
2022/06/13 11:38:54;;;;;;;6.60;2.60;;;28.70;99.90;;;;;;5039072;28;20056;-75
2022/06/13 11:41:25;;;;;;;11.88;4.05;;;28.60;99.90;;;;;;5036821;28;20029;-75
2022/06/13 11:44:01;;;;;;;7.97;2.97;;;28.50;99.90;;;;;;5038858;28;20028;-75
2022/06/13 11:46:27;;;;;;;10.48;3.28;;;28.50;99.90;;;;;;5017850;28;20022;-76
2022/06/13 11:49:01;;;;;;;8.65;2.95;;;28.60;99.90;;;;;;5035996;28;20095;-75
2022/06/13 11:51:29;;;;;;;11.00;3.33;;;28.60;99.90;;;;;;5012920;28;20026;-76
2022/06/13 11:53:58;;;;;;;7.72;3.22;;;28.70;99.90;;;;;;5028864;28;20017;-76
2022/06/13 11:56:30;;;;;;;7.93;3.15;;;28.80;99.90;;;;;;5010193;28;20030;-77
2022/06/13 11:59:00;;;;;;;11.75;3.15;;;29.00;99.90;;;;;;5019703;28;20105;-76
2022/06/13 12:01:32;;;;;;;7.25;3.20;;;28.90;99.90;;;;;;5014216;28;20064;-77
2022/06/13 12:04:07;;;;;;;9.13;3.40;;;28.90;99.90;;;;;;5016985;28;20057;-77
2022/06/13 12:06:40;;;;;;;11.38;3.92;;;28.90;99.90;;;;;;5018695;28;20052;-77
2022/06/13 12:09:14;;;;;;;8.10;3.78;;;29.00;99.90;;;;;;5018806;28;20026;-77
2022/06/13 12:12:00;;;;;;;7.35;3.08;;;28.90;99.90;;;;;;5018758;28;20068;-76
2022/06/13 12:14:31;;;;;;;7.57;3.05;;;29.00;99.90;;;;;;5019050;28;20037;-75
2022/06/13 12:17:07;;;;;;;4.82;2.95;;;29.20;99.90;;;;;;5035266;28;20021;-76
2022/06/13 12:20:03;;;;;;;8.15;3.25;;;29.20;99.90;;;;;;5018473;28;20029;-76
2022/06/13 12:22:41;;;;;;;11.35;2.92;;;29.20;99.90;;;;;;5020747;28;20026;-75
2022/06/13 12:25:21;;;;;;;6.30;3.00;;;29.40;99.90;;;;;;5015401;28;20483;-75
2022/06/13 12:27:57;;;;;;;5.25;2.65;;;29.70;99.90;;;;;;5031591;28;20017;-75
2022/06/13 12:30:47;;;;;;;11.82;3.08;;;29.70;99.90;;;;;;5026171;28;20057;-77
2022/06/13 12:33:35;;;;;;;7.85;2.58;;;29.90;99.90;;;;;;5021336;28;20022;-75
2022/06/13 12:36:04;;;;;;;5.93;3.08;;;30.40;99.90;;;;;;5008291;28;20059;-75
2022/06/13 12:38:47;;;;;;;8.43;3.08;;;30.60;99.90;;;;;;5029729;28;20101;-75
2022/06/13 12:41:18;;;;;;;9.75;2.40;;;30.70;97.70;;;;;;5025651;28;20034;-75
2022/06/13 12:43:54;;;;;;;10.27;2.78;;;30.90;99.50;;;;;;5030291;28;20033;-75
2022/06/13 12:46:37;;;;;;;5.63;2.40;;;30.90;98.20;;;;;;5026690;28;20033;-75
2022/06/13 12:49:39;;;;;;;5.70;2.40;;;30.90;95.40;;;;;;5026639;28;20053;-76
2022/06/13 12:52:24;;;;;;;7.28;2.92;;;30.70;95.00;;;;;;5025365;28;20049;-76
2022/06/13 12:54:59;;;;;;;7.55;3.15;;;30.40;94.40;;;;;;5017926;28;20030;-75
2022/06/13 12:57:46;;;;;;;6.32;2.22;;;30.30;94.70;;;;;;5037120;28;20037;-75
2022/06/13 13:00:15;;;;;;;7.10;2.58;;;30.30;95.00;;;;;;5005244;28;20013;-76
2022/06/13 13:03:07;;;;;;;6.72;2.28;;;30.30;94.90;;;;;;5037953;28;20029;-75
2022/06/13 13:05:53;;;;;;;7.53;2.47;;;30.40;95.80;;;;;;5032332;28;20044;-75
2022/06/13 13:08:37;;;;;;;6.78;2.20;;;30.60;95.90;;;;;;5025218;28;20037;-75
2022/06/13 13:11:21;;;;;;;8.57;2.35;;;30.70;93.70;;;;;;5037377;28;20014;-75
2022/06/13 13:14:25;;;;;;;5.13;2.05;;;30.70;93.50;;;;;;5037431;28;20108;-76
2022/06/13 13:17:00;;;;;;;8.60;2.35;;;30.60;94.60;;;;;;5009289;28;20041;-76
2022/06/13 13:19:48;;;;;;;8.40;2.00;;;30.70;94.90;;;;;;5034659;28;20029;-76
2022/06/13 13:22:28;;;;;;;6.15;1.90;;;30.80;93.40;;;;;;5036432;28;20017;-74
2022/06/13 13:25:05;;;;;;;10.40;2.80;;;30.80;94.20;;;;;;5028106;28;20399;-75
2022/06/13 13:28:01;;;;;;;6.18;2.25;;;30.90;93.50;;;;;;5032359;28;20028;-76
2022/06/13 13:30:37;;;;;;;6.15;2.20;;;31.20;92.80;;;;;;5035659;28;20470;-76
2022/06/13 13:33:13;;;;;;;5.15;2.20;;;31.60;94.20;;;;;;5019449;28;20052;-76
2022/06/13 13:35:42;;;;;;;7.95;2.03;;;31.70;91.80;;;;;;5035838;28;20385;-75